Time;durP1;ratioP1;P1;durP2;ratioP2;P2;SDS_P1;SDS_P2;PMS_P1;PMS_P2;Temp;Humidity;BMP_temperature;BMP_pressure;BME280_temperature;BME280_humidity;BME280_pressure;Samples;Min_cycle;Max_cycle;Signal;HPM_P1;HPM_P2
2022/11/18 00:01:30;;;;;;;12.27;8.35;;;7.90;99.90;;;;;;5111447;27;20039;-66
2022/11/18 00:03:56;;;;;;;9.93;8.25;;;7.90;99.90;;;;;;5112937;27;20047;-65
2022/11/18 00:06:24;;;;;;;11.90;8.73;;;7.90;99.90;;;;;;5114435;27;20035;-65
2022/11/18 00:08:52;;;;;;;13.05;8.05;;;7.80;99.90;;;;;;5112788;27;20740;-66
2022/11/18 00:14:19;;;;;;;9.55;8.15;;;7.80;99.90;;;;;;5106112;27;20081;-65
2022/11/18 00:16:46;;;;;;;10.93;8.20;;;7.80;99.90;;;;;;5111906;27;20458;-65
2022/11/18 00:19:12;;;;;;;9.30;8.27;;;7.70;99.90;;;;;;5107290;27;20043;-65
2022/11/18 00:21:37;;;;;;;11.32;8.20;;;7.70;99.90;;;;;;5108897;27;20039;-65
2022/11/18 00:24:03;;;;;;;10.40;8.48;;;7.70;99.90;;;;;;5113290;27;20042;-65
2022/11/18 00:26:29;;;;;;;9.38;8.40;;;7.70;99.90;;;;;;5112903;27;20039;-66
2022/11/18 00:28:54;;;;;;;9.93;8.93;;;7.70;99.90;;;;;;5131679;27;20117;-65
2022/11/18 00:31:20;;;;;;;11.52;8.82;;;7.70;99.90;;;;;;5112568;27;20438;-65
2022/11/18 00:33:45;;;;;;;11.70;8.93;;;7.60;99.90;;;;;;5112760;27;20116;-66
2022/11/18 00:36:11;;;;;;;11.95;8.82;;;7.60;99.90;;;;;;5111096;27;20122;-66
2022/11/18 00:38:38;;;;;;;9.75;8.75;;;7.60;99.90;;;;;;5108940;27;20035;-65
2022/11/18 00:41:06;;;;;;;11.93;9.38;;;7.60;99.90;;;;;;5112717;27;20035;-65
2022/11/18 00:43:33;;;;;;;11.98;9.32;;;7.60;99.90;;;;;;5112359;27;20047;-66
2022/11/18 00:45:59;;;;;;;10.98;9.88;;;7.60;99.90;;;;;;5111430;27;20035;-65
2022/11/18 00:48:25;;;;;;;12.80;10.57;;;7.60;99.90;;;;;;5111526;27;20081;-66
2022/11/18 00:50:53;;;;;;;11.88;10.68;;;7.50;99.90;;;;;;5112300;27;20528;-66
2022/11/18 00:53:21;;;;;;;15.05;11.45;;;7.50;99.90;;;;;;5112744;27;20131;-66
2022/11/18 00:55:47;;;;;;;14.32;12.25;;;7.50;99.90;;;;;;5111656;27;20114;-66
2022/11/18 00:58:13;;;;;;;14.57;12.43;;;7.50;99.90;;;;;;5112350;27;20050;-65
2022/11/18 01:00:43;;;;;;;14.73;13.00;;;7.50;99.90;;;;;;5111544;27;20369;-66
2022/11/18 01:03:10;;;;;;;15.13;12.60;;;7.50;99.90;;;;;;5112561;27;20039;-66
2022/11/18 01:05:36;;;;;;;17.98;14.02;;;7.40;99.90;;;;;;5111659;27;20047;-65
2022/11/18 01:08:03;;;;;;;17.00;14.60;;;7.50;99.90;;;;;;5110401;27;20493;-65
2022/11/18 01:10:29;;;;;;;21.13;15.63;;;7.40;99.90;;;;;;5106676;27;20541;-66
2022/11/18 01:15:40;;;;;;;21.73;15.45;;;7.40;99.90;;;;;;5108357;27;20107;-66
2022/11/18 01:18:06;;;;;;;16.75;14.95;;;7.50;99.90;;;;;;5111359;27;20043;-65
2022/11/18 01:20:33;;;;;;;20.95;16.40;;;7.50;99.90;;;;;;5128884;27;20035;-66
2022/11/18 01:22:58;;;;;;;22.85;17.25;;;7.50;99.90;;;;;;5108513;27;20496;-65
2022/11/18 01:25:24;;;;;;;24.48;17.38;;;7.50;99.90;;;;;;5109144;27;20126;-66
2022/11/18 01:27:50;;;;;;;22.70;17.80;;;7.50;99.90;;;;;;5111495;27;20034;-65
2022/11/18 01:30:15;;;;;;;24.90;17.95;;;7.50;99.90;;;;;;5112986;27;20043;-65
2022/11/18 01:32:42;;;;;;;23.80;17.40;;;7.50;99.90;;;;;;5109541;27;20043;-65
2022/11/18 01:35:09;;;;;;;25.67;18.20;;;7.50;99.90;;;;;;5108553;28;20468;-65
2022/11/18 01:37:34;;;;;;;24.17;18.55;;;7.50;99.90;;;;;;5110240;27;20043;-66
2022/11/18 01:40:00;;;;;;;23.63;18.00;;;7.50;99.90;;;;;;5108066;28;20054;-66
2022/11/18 01:42:26;;;;;;;23.33;17.75;;;7.50;99.90;;;;;;5091514;28;20138;-66
2022/11/18 01:45:10;;;;;;;27.00;19.98;;;7.50;99.90;;;;;;5112599;28;20416;-67
2022/11/18 01:48:15;;;;;;;26.10;19.25;;;7.50;99.90;;;;;;5112145;28;20481;-66
2022/11/18 01:51:05;;;;;;;25.20;19.27;;;7.50;99.90;;;;;;4997945;28;20507;-66
2022/11/18 01:53:34;;;;;;;25.98;19.83;;;7.60;99.90;;;;;;5005121;28;20058;-66
2022/11/18 01:56:06;;;;;;;25.42;18.10;;;7.60;99.90;;;;;;5010265;28;20049;-66
2022/11/18 01:58:40;;;;;;;27.38;19.25;;;7.60;99.90;;;;;;4994221;28;20049;-65
2022/11/18 02:01:07;;;;;;;28.02;19.63;;;7.60;99.90;;;;;;5010873;28;20057;-65
2022/11/18 02:03:33;;;;;;;30.23;20.40;;;7.60;99.90;;;;;;5009321;28;20052;-65
2022/11/18 02:06:01;;;;;;;29.88;21.05;;;7.60;99.90;;;;;;5008711;28;20072;-66
2022/11/18 02:08:28;;;;;;;28.20;20.98;;;7.60;99.90;;;;;;5010444;28;20150;-66
2022/11/18 02:10:54;;;;;;;28.90;19.92;;;7.60;99.90;;;;;;5010547;28;20512;-66
2022/11/18 02:13:20;;;;;;;27.95;19.92;;;7.60;99.90;;;;;;5009773;28;20092;-65
2022/11/18 02:15:57;;;;;;;28.55;20.98;;;7.60;99.90;;;;;;5006633;28;20144;-65
2022/11/18 02:18:46;;;;;;;30.42;20.88;;;7.70;99.90;;;;;;5017759;28;20079;-65
2022/11/18 02:21:28;;;;;;;31.67;20.83;;;7.60;99.90;;;;;;4993409;28;20053;-65
2022/11/18 02:24:17;;;;;;;34.22;22.15;;;7.60;99.90;;;;;;5025844;28;20047;-65
2022/11/18 02:26:53;;;;;;;33.45;22.65;;;7.70;99.90;;;;;;5025429;28;20078;-65
2022/11/18 02:29:25;;;;;;;32.08;22.58;;;7.70;99.90;;;;;;5091568;28;20050;-65
2022/11/18 02:31:56;;;;;;;;;;;7.70;99.90;;;;;;5111088;28;20078;-64
2022/11/18 02:34:41;;;;;;;34.30;23.15;;;7.70;99.90;;;;;;5110842;28;19980;-65
2022/11/18 02:37:23;;;;;;;34.42;21.98;;;7.70;99.90;;;;;;5105308;28;20047;-65
2022/11/18 02:40:09;;;;;;;35.83;22.88;;;7.70;99.90;;;;;;5107093;28;20504;-66
2022/11/18 02:42:36;;;;;;;36.95;23.77;;;7.70;99.90;;;;;;5108009;27;20054;-65
2022/11/18 02:45:07;;;;;;;42.17;25.48;;;7.70;99.90;;;;;;5096359;27;20043;-65
2022/11/18 02:47:35;;;;;;;36.50;23.38;;;7.70;99.90;;;;;;5111313;27;20035;-66
2022/11/18 02:50:07;;;;;;;35.40;23.73;;;7.70;99.90;;;;;;5115909;27;20035;-66
2022/11/18 02:52:35;;;;;;;34.55;24.33;;;7.70;99.90;;;;;;5113896;27;20474;-65
2022/11/18 02:55:04;;;;;;;38.58;24.00;;;7.70;99.90;;;;;;5133074;27;20100;-65
2022/11/18 02:57:31;;;;;;;41.70;25.83;;;7.70;99.90;;;;;;5114232;27;20149;-65
2022/11/18 02:59:57;;;;;;;39.88;24.95;;;7.70;99.90;;;;;;5114706;27;20035;-65
2022/11/18 03:02:22;;;;;;;37.20;24.83;;;7.70;99.90;;;;;;5113545;27;20039;-66
2022/11/18 03:04:53;;;;;;;38.28;25.70;;;7.70;99.90;;;;;;5112947;27;20027;-65
2022/11/18 03:07:25;;;;;;;42.17;25.85;;;7.70;99.90;;;;;;5094833;27;20051;-65
2022/11/18 03:09:52;;;;;;;38.65;26.25;;;7.70;99.90;;;;;;5113148;27;20481;-65
2022/11/18 03:13:02;;;;;;;41.53;25.40;;;7.70;99.90;;;;;;5115494;27;20047;-65
2022/11/18 03:15:43;;;;;;;38.00;24.27;;;7.70;99.90;;;;;;5098717;27;20509;-64
2022/11/18 03:18:17;;;;;;;38.75;24.75;;;7.70;99.90;;;;;;5114752;27;20058;-65
2022/11/18 03:20:51;;;;;;;38.42;24.60;;;7.70;99.90;;;;;;5113606;27;20043;-65
2022/11/18 03:23:35;;;;;;;39.70;26.30;;;7.70;99.90;;;;;;5113556;27;20402;-66
2022/11/18 03:26:10;;;;;;;40.80;24.85;;;7.70;99.90;;;;;;5095849;27;20135;-65
2022/11/18 03:28:52;;;;;;;38.25;24.55;;;7.70;99.90;;;;;;5113512;27;20031;-64
2022/11/18 03:31:36;;;;;;;34.38;24.23;;;7.70;99.90;;;;;;5113537;27;20088;-65
2022/11/18 03:34:08;;;;;;;37.22;24.08;;;7.70;99.90;;;;;;5113009;27;20042;-66
2022/11/18 03:36:39;;;;;;;36.97;23.88;;;7.70;99.90;;;;;;5130320;27;20057;-65
2022/11/18 03:39:07;;;;;;;34.88;23.60;;;7.70;99.90;;;;;;5113314;27;20054;-65
2022/11/18 03:41:38;;;;;;;37.05;24.20;;;7.70;99.90;;;;;;5112944;27;20031;-65
2022/11/18 03:44:11;;;;;;;32.67;23.35;;;7.80;99.90;;;;;;5112201;27;20039;-65
2022/11/18 03:47:04;;;;;;;35.60;24.10;;;7.80;99.90;;;;;;5095411;27;20043;-66
2022/11/18 03:49:43;;;;;;;30.70;22.50;;;7.70;99.90;;;;;;5111892;27;20039;-65
2022/11/18 03:52:18;;;;;;;34.95;23.50;;;7.80;99.90;;;;;;5109820;28;20056;-65
2022/11/18 03:54:47;;;;;;;32.70;22.65;;;7.80;99.90;;;;;;5092822;28;20479;-65
2022/11/18 03:57:18;;;;;;;30.02;22.58;;;7.70;99.90;;;;;;5109277;28;20131;-65
2022/11/18 03:59:50;;;;;;;36.85;23.73;;;7.70;99.90;;;;;;5109408;28;20394;-65
2022/11/18 04:02:19;;;;;;;37.95;23.85;;;7.70;99.90;;;;;;5108024;28;20555;-66
2022/11/18 04:04:47;;;;;;;34.88;23.17;;;7.70;99.90;;;;;;5107063;28;20059;-65
2022/11/18 04:07:22;;;;;;;34.63;24.00;;;7.70;99.90;;;;;;5105666;28;20402;-64
2022/11/18 04:09:56;;;;;;;32.95;22.92;;;7.70;99.90;;;;;;5109753;28;20024;-65
2022/11/18 04:12:24;;;;;;;34.97;23.98;;;7.60;99.90;;;;;;5104531;28;20047;-65
2022/11/18 04:14:54;;;;;;;34.03;24.45;;;7.70;99.90;;;;;;5105355;28;20444;-66
2022/11/18 04:17:22;;;;;;;37.92;24.83;;;7.70;99.90;;;;;;5110448;28;20054;-64
2022/11/18 04:19:48;;;;;;;35.50;24.10;;;7.70;99.90;;;;;;5108075;28;20566;-65
2022/11/18 04:22:15;;;;;;;39.80;25.35;;;7.60;99.90;;;;;;5108704;28;20024;-66
2022/11/18 04:24:40;;;;;;;36.92;24.98;;;7.70;99.90;;;;;;5108473;28;20375;-65
2022/11/18 04:27:06;;;;;;;35.67;24.88;;;7.70;99.90;;;;;;5107349;28;20044;-66
2022/11/18 04:29:33;;;;;;;39.45;25.70;;;7.70;99.90;;;;;;5107630;28;20035;-65
2022/11/18 04:31:59;;;;;;;36.22;25.40;;;7.60;99.90;;;;;;5110117;28;20050;-64
2022/11/18 04:34:25;;;;;;;39.00;25.45;;;7.70;99.90;;;;;;5092106;28;20054;-65
2022/11/18 04:36:51;;;;;;;41.25;26.10;;;7.60;99.90;;;;;;5106386;28;20044;-65
2022/11/18 04:39:17;;;;;;;39.85;25.95;;;7.70;99.90;;;;;;5106317;28;20036;-64
2022/11/18 04:41:55;;;;;;;40.55;25.73;;;7.60;99.90;;;;;;5109918;28;20040;-64
2022/11/18 04:44:32;;;;;;;39.40;26.42;;;7.70;99.90;;;;;;5108149;28;20054;-65
2022/11/18 04:47:00;;;;;;;40.80;26.23;;;7.60;99.90;;;;;;5110093;28;20031;-65
2022/11/18 04:49:26;;;;;;;40.92;26.55;;;7.70;99.90;;;;;;5106102;28;20119;-65
2022/11/18 04:51:52;;;;;;;40.83;27.25;;;7.70;99.90;;;;;;5110889;27;20506;-66
2022/11/18 04:54:19;;;;;;;41.17;28.08;;;7.60;99.90;;;;;;5112354;27;20043;-64
2022/11/18 04:56:45;;;;;;;40.20;26.35;;;7.60;99.90;;;;;;5113390;27;20469;-65
2022/11/18 04:59:12;;;;;;;44.47;28.00;;;7.70;99.90;;;;;;5110575;27;20035;-65
2022/11/18 05:01:37;;;;;;;43.38;28.20;;;7.60;99.90;;;;;;5111062;27;20069;-64
2022/11/18 05:04:04;;;;;;;45.33;27.63;;;7.60;99.90;;;;;;5111139;27;20035;-65
2022/11/18 05:06:31;;;;;;;43.00;28.45;;;7.60;99.90;;;;;;5110849;27;20039;-65
2022/11/18 05:08:57;;;;;;;45.10;28.90;;;7.60;99.90;;;;;;5112018;27;20041;-66
2022/11/18 05:14:07;;;;;;;44.30;28.23;;;7.60;99.90;;;;;;5109879;27;20130;-65
2022/11/18 05:16:33;;;;;;;43.35;27.88;;;7.60;99.90;;;;;;5111269;27;20163;-66
2022/11/18 05:19:00;;;;;;;44.80;28.85;;;7.60;99.90;;;;;;5129115;27;20379;-65
2022/11/18 05:21:26;;;;;;;42.47;27.60;;;7.60;99.90;;;;;;5110954;27;20074;-65
2022/11/18 05:23:52;;;;;;;41.80;27.77;;;7.70;99.90;;;;;;5094656;27;20082;-65
2022/11/18 05:26:17;;;;;;;44.92;28.98;;;7.70;99.90;;;;;;5112005;27;20434;-65
2022/11/18 05:28:43;;;;;;;48.72;31.02;;;7.70;99.90;;;;;;5111529;27;20103;-65
2022/11/18 05:31:14;;;;;;;46.83;28.48;;;7.60;99.90;;;;;;5111319;28;20038;-64
2022/11/18 05:33:40;;;;;;;47.25;30.08;;;7.70;99.90;;;;;;5112060;27;20053;-66
2022/11/18 05:36:09;;;;;;;45.10;29.50;;;7.60;99.90;;;;;;5130256;27;20503;-64
2022/11/18 05:38:35;;;;;;;46.80;28.00;;;7.60;99.90;;;;;;5110840;27;20046;-65
2022/11/18 05:41:01;;;;;;;44.08;28.77;;;7.60;99.90;;;;;;5112133;28;20027;-65
2022/11/18 05:43:28;;;;;;;48.78;29.10;;;7.60;99.90;;;;;;5129298;27;20043;-65
2022/11/18 05:45:54;;;;;;;43.15;27.70;;;7.60;99.90;;;;;;5110918;28;20419;-64
2022/11/18 05:48:20;;;;;;;47.45;29.23;;;7.60;99.90;;;;;;5111447;28;20043;-65
2022/11/18 05:50:47;;;;;;;45.70;28.75;;;7.60;99.90;;;;;;5110421;28;20039;-65
2022/11/18 05:53:13;;;;;;;42.95;28.42;;;7.50;99.90;;;;;;5110177;28;20098;-65
2022/11/18 05:55:52;;;;;;;41.45;28.52;;;7.60;99.90;;;;;;5112454;28;20503;-65
2022/11/18 05:58:17;;;;;;;43.83;27.55;;;7.60;99.90;;;;;;5087178;28;20039;-66
2022/11/18 06:00:46;;;;;;;42.40;26.33;;;7.60;99.90;;;;;;5105382;28;20391;-64
2022/11/18 06:03:22;;;;;;;38.20;25.48;;;7.60;99.90;;;;;;5110221;28;20047;-65
2022/11/18 06:05:48;;;;;;;37.67;25.65;;;7.60;99.90;;;;;;5093066;28;20063;-65
2022/11/18 06:08:16;;;;;;;41.55;26.10;;;7.60;99.90;;;;;;5127635;27;20422;-65
2022/11/18 06:10:44;;;;;;;37.72;24.38;;;7.60;99.90;;;;;;5092976;28;20417;-65
2022/11/18 06:13:15;;;;;;;37.75;25.55;;;7.60;99.90;;;;;;5111058;28;20068;-65
2022/11/18 06:15:42;;;;;;;37.75;23.90;;;7.60;99.90;;;;;;5112087;28;20533;-65
2022/11/18 06:18:22;;;;;;;38.67;24.00;;;7.60;99.90;;;;;;5093197;27;20489;-64
2022/11/18 06:20:48;;;;;;;37.63;25.10;;;7.50;99.90;;;;;;5111557;27;20099;-66
2022/11/18 06:23:14;;;;;;;35.28;23.77;;;7.50;99.90;;;;;;5128530;27;20366;-66
2022/11/18 06:25:40;;;;;;;33.53;23.35;;;7.60;99.90;;;;;;5134996;27;20087;-65
2022/11/18 06:28:08;;;;;;;32.08;22.13;;;7.60;99.90;;;;;;5112720;27;20123;-65
2022/11/18 06:30:34;;;;;;;34.53;22.50;;;7.60;99.90;;;;;;5115550;27;20385;-66
2022/11/18 06:32:59;;;;;;;31.90;22.33;;;7.60;99.90;;;;;;5114704;27;20192;-66
2022/11/18 06:35:25;;;;;;;33.83;22.55;;;7.60;99.90;;;;;;5115591;27;20114;-65
2022/11/18 06:37:50;;;;;;;34.88;22.42;;;7.60;99.90;;;;;;5133567;27;20447;-64
2022/11/18 06:40:16;;;;;;;33.00;22.67;;;7.60;99.90;;;;;;5113289;27;20047;-65
2022/11/18 06:45:26;;;;;;;32.90;23.15;;;7.50;99.90;;;;;;5132032;27;20049;-67
2022/11/18 06:47:55;;;;;;;32.38;22.65;;;7.50;99.90;;;;;;5116334;27;20125;-68
2022/11/18 06:50:21;;;;;;;33.42;22.33;;;7.60;99.90;;;;;;5098959;27;20088;-67
2022/11/18 06:52:47;;;;;;;30.70;22.23;;;7.50;99.90;;;;;;5115548;27;20058;-68
2022/11/18 06:55:12;;;;;;;33.63;21.73;;;7.50;99.90;;;;;;5116008;27;20053;-67
2022/11/18 06:57:38;;;;;;;30.00;20.70;;;7.50;99.90;;;;;;5116140;27;20047;-68
2022/11/18 07:00:05;;;;;;;29.13;21.00;;;7.50;99.90;;;;;;5115408;27;20035;-67
2022/11/18 07:02:30;;;;;;;28.50;19.88;;;7.50;99.90;;;;;;5111763;27;20071;-67
2022/11/18 07:04:56;;;;;;;28.45;20.05;;;7.50;99.90;;;;;;5114155;27;20074;-68
2022/11/18 07:07:22;;;;;;;28.25;20.05;;;7.50;99.90;;;;;;5114786;27;20027;-67
2022/11/18 07:09:47;;;;;;;25.65;19.80;;;7.50;99.90;;;;;;5114868;27;20039;-68
2022/11/18 07:12:13;;;;;;;30.67;20.10;;;7.50;99.90;;;;;;5114636;27;20363;-68
2022/11/18 07:14:38;;;;;;;28.33;20.25;;;7.50;99.90;;;;;;5111191;27;20038;-68
2022/11/18 07:17:05;;;;;;;29.50;19.88;;;7.50;99.90;;;;;;5111378;27;20035;-66
2022/11/18 07:19:30;;;;;;;27.75;19.42;;;7.50;99.90;;;;;;5115067;27;20070;-68
2022/11/18 07:21:58;;;;;;;28.20;20.13;;;7.40;99.90;;;;;;5115870;27;20081;-67
2022/11/18 07:24:23;;;;;;;27.85;19.85;;;7.40;99.90;;;;;;5096684;27;20058;-68
2022/11/18 07:26:51;;;;;;;28.08;20.70;;;7.40;99.90;;;;;;5108045;27;20398;-68
2022/11/18 07:29:16;;;;;;;29.90;20.63;;;7.40;99.90;;;;;;5113815;27;20145;-66
2022/11/18 07:31:42;;;;;;;28.75;20.70;;;7.50;99.90;;;;;;5114458;27;20616;-68
2022/11/18 07:34:08;;;;;;;27.20;19.60;;;7.40;99.90;;;;;;5096133;27;20175;-67
2022/11/18 07:36:34;;;;;;;26.33;19.25;;;7.40;99.90;;;;;;5113131;27;20042;-68
2022/11/18 07:39:00;;;;;;;27.85;19.58;;;7.40;99.90;;;;;;5114686;27;20539;-67
2022/11/18 07:41:28;;;;;;;27.33;19.55;;;7.40;99.90;;;;;;5094985;27;20470;-67
2022/11/18 07:43:56;;;;;;;29.77;19.45;;;7.40;99.90;;;;;;5113769;27;20056;-67
2022/11/18 07:46:27;;;;;;;27.88;19.67;;;7.40;99.90;;;;;;5109904;27;20477;-67
2022/11/18 07:48:55;;;;;;;28.33;19.15;;;7.40;99.90;;;;;;5112860;27;20035;-67
2022/11/18 07:51:23;;;;;;;25.85;18.02;;;7.40;99.90;;;;;;5111794;27;20470;-67
2022/11/18 07:53:48;;;;;;;25.98;18.20;;;7.40;99.90;;;;;;5114589;27;20059;-68
2022/11/18 07:56:15;;;;;;;25.23;18.17;;;7.30;99.90;;;;;;5114196;27;20043;-67
2022/11/18 07:58:41;;;;;;;25.63;17.77;;;7.40;99.90;;;;;;5113059;27;20092;-68
2022/11/18 08:01:11;;;;;;;24.05;17.35;;;7.40;99.90;;;;;;5114835;27;20043;-68
2022/11/18 08:03:37;;;;;;;24.35;16.73;;;7.40;99.90;;;;;;5114395;27;20046;-68
2022/11/18 08:06:05;;;;;;;22.48;16.20;;;7.40;99.90;;;;;;5114693;27;20035;-68
2022/11/18 08:08:31;;;;;;;24.80;17.08;;;7.40;99.90;;;;;;5114352;27;20039;-68
2022/11/18 08:10:58;;;;;;;21.58;15.95;;;7.30;99.90;;;;;;5114421;27;20073;-68
2022/11/18 08:13:25;;;;;;;21.60;15.80;;;7.30;99.90;;;;;;5114671;27;20091;-67
2022/11/18 08:15:51;;;;;;;22.02;15.68;;;7.40;99.90;;;;;;5097339;27;20432;-67
2022/11/18 08:18:17;;;;;;;21.15;15.82;;;7.30;99.90;;;;;;5114157;27;20573;-67
2022/11/18 08:20:44;;;;;;;22.33;15.45;;;7.30;99.90;;;;;;5114078;27;20130;-67
2022/11/18 08:23:10;;;;;;;21.95;15.95;;;7.40;99.90;;;;;;5113693;27;20039;-67
2022/11/18 08:25:36;;;;;;;22.45;14.77;;;7.40;99.90;;;;;;5114621;27;20524;-67
2022/11/18 08:28:01;;;;;;;21.67;14.50;;;7.30;99.90;;;;;;5113611;27;20047;-68
2022/11/18 08:30:27;;;;;;;20.40;14.73;;;7.30;99.90;;;;;;5114624;27;20079;-67
2022/11/18 08:32:53;;;;;;;19.73;14.10;;;7.40;99.90;;;;;;5113943;27;20039;-68
2022/11/18 08:35:18;;;;;;;19.38;13.55;;;7.30;99.90;;;;;;5113599;27;20087;-68
2022/11/18 08:37:44;;;;;;;19.23;13.10;;;7.30;99.90;;;;;;5114016;27;20481;-67
2022/11/18 08:40:10;;;;;;;20.70;14.10;;;7.30;99.90;;;;;;5113020;27;20035;-69
2022/11/18 08:42:36;;;;;;;20.50;14.02;;;7.30;99.90;;;;;;5113749;27;20043;-67
2022/11/18 08:45:04;;;;;;;22.15;14.40;;;7.30;99.90;;;;;;5113811;27;20035;-68
2022/11/18 08:47:29;;;;;;;22.23;15.23;;;7.40;99.90;;;;;;5095577;27;20046;-69
2022/11/18 08:49:55;;;;;;;19.10;14.13;;;7.40;99.90;;;;;;5113289;27;20486;-67
2022/11/18 08:52:20;;;;;;;17.67;13.15;;;7.40;99.90;;;;;;5113448;27;20486;-67
2022/11/18 08:54:46;;;;;;;20.00;13.82;;;7.40;99.90;;;;;;5113814;27;20614;-68
2022/11/18 08:57:12;;;;;;;18.13;12.93;;;7.40;99.90;;;;;;5113606;27;20098;-68
2022/11/18 08:59:37;;;;;;;17.38;13.15;;;7.40;99.90;;;;;;5113684;27;20038;-68
2022/11/18 09:02:03;;;;;;;19.02;13.00;;;7.40;99.90;;;;;;5113228;27;20042;-69
2022/11/18 09:04:29;;;;;;;18.23;12.95;;;7.50;99.90;;;;;;5096428;27;20035;-68
2022/11/18 09:06:54;;;;;;;18.33;12.52;;;7.50;99.90;;;;;;5113419;27;20059;-67
2022/11/18 09:09:20;;;;;;;16.88;12.48;;;7.50;99.90;;;;;;5113466;27;20054;-68
2022/11/18 09:11:45;;;;;;;16.73;11.48;;;7.40;99.90;;;;;;5113138;27;20073;-68
2022/11/18 09:14:11;;;;;;;16.85;11.60;;;7.40;99.90;;;;;;5112989;27;20086;-69
2022/11/18 09:16:37;;;;;;;15.40;11.93;;;7.40;99.90;;;;;;5111684;27;20030;-68
2022/11/18 09:19:03;;;;;;;15.73;10.98;;;7.40;99.90;;;;;;5109947;27;20073;-68
2022/11/18 09:21:29;;;;;;;15.13;11.57;;;7.40;99.90;;;;;;5110789;27;20035;-68
2022/11/18 09:23:54;;;;;;;15.32;11.05;;;7.40;99.90;;;;;;5095234;27;20067;-68
2022/11/18 09:26:22;;;;;;;15.25;11.65;;;7.40;99.90;;;;;;5130499;27;20035;-68
2022/11/18 09:28:51;;;;;;;16.17;12.20;;;7.40;99.90;;;;;;5112989;27;20035;-67
2022/11/18 09:31:17;;;;;;;17.10;12.40;;;7.40;99.90;;;;;;5112746;27;20095;-68
2022/11/18 09:33:44;;;;;;;21.15;13.20;;;7.40;99.90;;;;;;5110656;27;20105;-67
2022/11/18 09:36:21;;;;;;;18.33;12.93;;;7.40;99.90;;;;;;5110628;27;20070;-67
2022/11/18 09:38:47;;;;;;;19.02;12.65;;;7.40;99.90;;;;;;5113043;27;20035;-69
2022/11/18 09:41:38;;;;;;;18.70;13.40;;;7.40;99.90;;;;;;5112558;28;20057;-68
2022/11/18 09:44:39;;;;;;;18.90;13.40;;;7.40;99.90;;;;;;5110190;27;20370;-68
2022/11/18 09:47:33;;;;;;;17.88;12.95;;;7.50;99.90;;;;;;5110254;28;20041;-67
2022/11/18 09:50:02;;;;;;;19.35;12.68;;;7.40;99.90;;;;;;5112592;27;20031;-68
2022/11/18 09:53:03;;;;;;;19.42;13.27;;;7.40;99.90;;;;;;5111284;28;20087;-68
2022/11/18 09:55:30;;;;;;;17.98;12.82;;;7.40;99.90;;;;;;5013811;28;20033;-68
2022/11/18 09:57:57;;;;;;;15.80;11.93;;;7.40;99.90;;;;;;5030479;28;20124;-68
2022/11/18 10:00:31;;;;;;;18.60;13.30;;;7.40;99.90;;;;;;5030081;28;20064;-68
2022/11/18 10:03:28;;;;;;;16.45;11.38;;;7.50;99.90;;;;;;5030336;28;20118;-67
2022/11/18 10:06:09;;;;;;;16.67;12.20;;;7.50;99.90;;;;;;4938038;29;20055;-68
2022/11/18 10:09:07;;;;;;;13.50;10.57;;;7.50;99.90;;;;;;4933389;29;20039;-68
2022/11/18 10:11:59;;;;;;;14.25;9.43;;;7.50;99.90;;;;;;4932938;28;20186;-68
2022/11/18 10:14:37;;;;;;;11.38;9.15;;;7.50;99.90;;;;;;4934892;28;20051;-67
2022/11/18 10:17:11;;;;;;;10.07;8.32;;;7.50;99.90;;;;;;4939427;29;20055;-68
2022/11/18 10:19:46;;;;;;;11.95;8.52;;;7.40;99.90;;;;;;4932955;29;20502;-68
2022/11/18 10:22:30;;;;;;;10.70;8.15;;;7.40;99.90;;;;;;4932984;28;20107;-67
2022/11/18 10:24:59;;;;;;;13.90;8.88;;;7.40;99.90;;;;;;4952079;28;20601;-68
2022/11/18 10:27:34;;;;;;;11.98;9.05;;;7.40;99.90;;;;;;4934356;28;20493;-67
2022/11/18 10:30:00;;;;;;;12.57;9.18;;;7.40;99.90;;;;;;4933343;29;20047;-68
2022/11/18 10:32:26;;;;;;;11.65;8.93;;;7.50;99.90;;;;;;4977177;28;20104;-68
2022/11/18 10:34:57;;;;;;;11.00;8.80;;;7.50;99.90;;;;;;4990684;28;20045;-67
2022/11/18 10:37:27;;;;;;;13.35;9.77;;;7.50;99.90;;;;;;5004682;28;20140;-68
2022/11/18 10:39:57;;;;;;;12.07;10.00;;;7.50;99.90;;;;;;5010249;28;20050;-68
2022/11/18 10:42:46;;;;;;;15.43;10.93;;;7.60;99.90;;;;;;5080542;28;20047;-68
2022/11/18 10:45:22;;;;;;;14.48;10.48;;;7.60;99.90;;;;;;5111497;28;20032;-68
2022/11/18 10:48:10;;;;;;;16.67;10.52;;;7.60;99.90;;;;;;5110993;28;20031;-68
2022/11/18 10:50:44;;;;;;;13.52;9.90;;;7.50;99.90;;;;;;5111311;28;20039;-68
2022/11/18 10:53:28;;;;;;;14.38;10.55;;;7.50;99.90;;;;;;5072189;28;1119738;-68
2022/11/18 10:56:02;;;;;;;14.02;10.82;;;7.50;99.90;;;;;;5112631;28;20128;-68
2022/11/18 10:58:30;;;;;;;16.67;11.32;;;7.50;99.90;;;;;;5094941;28;20050;-67
2022/11/18 11:01:21;;;;;;;14.85;11.25;;;7.50;99.90;;;;;;5112284;28;20092;-68
2022/11/18 11:04:03;;;;;;;18.20;11.70;;;7.50;99.90;;;;;;5114948;27;20113;-68
2022/11/18 11:06:37;;;;;;;16.73;11.95;;;7.60;99.90;;;;;;5115855;27;20035;-68
2022/11/18 11:09:13;;;;;;;17.27;11.95;;;7.60;99.90;;;;;;5109967;27;20562;-67
2022/11/18 11:11:58;;;;;;;20.45;12.52;;;7.50;99.90;;;;;;5115813;27;20556;-67
2022/11/18 11:14:42;;;;;;;20.08;14.05;;;7.60;99.90;;;;;;5113857;27;20157;-68
2022/11/18 11:17:30;;;;;;;21.70;14.15;;;7.50;99.90;;;;;;5115268;27;20066;-68
2022/11/18 11:20:03;;;;;;;19.23;13.43;;;7.50;99.90;;;;;;5096034;27;20058;-68
2022/11/18 11:22:29;;;;;;;;;;;7.50;99.90;;;;;;5115892;27;20489;-69
2022/11/18 11:24:57;;;;;;;20.75;13.05;;;7.50;99.90;;;;;;5132268;27;19927;-68
2022/11/18 11:27:48;;;;;;;19.92;13.57;;;7.40;99.90;;;;;;5095324;27;20122;-68
2022/11/18 11:30:19;;;;;;;16.00;12.02;;;7.40;99.90;;;;;;5110776;27;20039;-68
2022/11/18 11:33:03;;;;;;;17.92;12.57;;;7.30;99.90;;;;;;5115266;27;20128;-68
2022/11/18 11:35:47;;;;;;;16.85;12.52;;;7.40;99.90;;;;;;5115028;27;20043;-68
2022/11/18 11:38:36;;;;;;;17.92;12.75;;;7.40;99.90;;;;;;5114638;27;20047;-68
2022/11/18 11:41:25;;;;;;;16.00;11.93;;;7.40;99.90;;;;;;5113532;27;20118;-68
2022/11/18 11:44:19;;;;;;;14.80;11.20;;;7.30;99.90;;;;;;5097954;27;20386;-69
2022/11/18 11:50:04;;;;;;;12.98;10.18;;;7.30;99.90;;;;;;5114868;27;20035;-68
2022/11/18 11:52:55;;;;;;;;;;;7.30;99.90;;;;;;5115281;27;20410;-68
2022/11/18 11:55:29;;;;;;;12.55;9.18;;;7.30;99.90;;;;;;5131830;27;19919;-68
2022/11/18 11:57:55;;;;;;;12.23;8.50;;;7.30;99.90;;;;;;5115284;27;20043;-67
2022/11/18 12:00:20;;;;;;;12.13;8.82;;;7.40;99.90;;;;;;5097388;27;20051;-68
2022/11/18 12:03:16;;;;;;;11.60;8.98;;;7.40;99.90;;;;;;5114257;27;20481;-67
2022/11/18 12:05:42;;;;;;;10.18;8.23;;;7.40;99.90;;;;;;5114587;27;20042;-68
2022/11/18 12:08:19;;;;;;;10.65;8.32;;;7.40;99.90;;;;;;5114748;27;20485;-68
2022/11/18 12:10:49;;;;;;;8.60;7.05;;;7.40;99.90;;;;;;5114661;27;20031;-68
2022/11/18 12:13:21;;;;;;;12.38;7.45;;;7.30;99.90;;;;;;5121873;27;20051;-67
2022/11/18 12:16:00;;;;;;;7.95;6.35;;;7.30;99.90;;;;;;5114836;27;20424;-68
2022/11/18 12:18:45;;;;;;;8.48;6.60;;;7.20;99.90;;;;;;5114254;27;20512;-68
2022/11/18 12:21:45;;;;;;;8.70;6.50;;;7.20;99.90;;;;;;5113722;27;20041;-68
2022/11/18 12:24:24;;;;;;;9.45;6.90;;;7.10;99.90;;;;;;5111111;27;20039;-67
2022/11/18 12:26:50;;;;;;;8.80;6.70;;;7.10;99.90;;;;;;5114098;27;20090;-67
2022/11/18 12:29:19;;;;;;;10.02;7.18;;;7.00;99.90;;;;;;5113984;27;20039;-68
2022/11/18 12:32:13;;;;;;;10.23;7.97;;;7.00;99.90;;;;;;5114222;27;20024;-68
2022/11/18 12:34:41;;;;;;;11.00;7.60;;;7.00;99.90;;;;;;5111654;27;20047;-69
2022/11/18 12:37:25;;;;;;;10.45;7.13;;;7.00;99.90;;;;;;5113257;27;20038;-68
2022/11/18 12:39:58;;;;;;;9.52;7.93;;;7.00;99.90;;;;;;5113091;27;20028;-69
2022/11/18 12:45:39;;;;;;;9.02;6.40;;;7.00;99.90;;;;;;5113252;27;20378;-68
2022/11/18 12:48:26;;;;;;;9.05;6.65;;;7.00;99.90;;;;;;5114275;27;20042;-68
2022/11/18 12:50:53;;;;;;;10.13;7.25;;;7.00;99.90;;;;;;5112911;27;20389;-67
2022/11/18 12:53:41;;;;;;;9.15;6.55;;;7.00;99.90;;;;;;5111631;27;20527;-69
2022/11/18 12:56:16;;;;;;;8.70;6.70;;;6.90;99.90;;;;;;5112333;27;20039;-68
2022/11/18 12:58:48;;;;;;;11.05;6.82;;;6.90;99.90;;;;;;5095435;27;20062;-67
2022/11/18 13:01:17;;;;;;;9.77;6.43;;;6.90;99.90;;;;;;5112694;27;20374;-68
2022/11/18 13:03:43;;;;;;;9.57;7.50;;;6.80;99.90;;;;;;5112999;27;20061;-69
2022/11/18 13:06:27;;;;;;;10.73;8.05;;;6.80;99.90;;;;;;5106552;27;20031;-68
2022/11/18 13:09:04;;;;;;;9.70;7.35;;;6.80;99.90;;;;;;5109529;27;20107;-68
2022/11/18 13:11:45;;;;;;;10.32;7.18;;;6.80;99.90;;;;;;5113085;27;20036;-68
2022/11/18 13:17:50;;;;;;;10.32;6.72;;;6.70;99.90;;;;;;5110900;27;20074;-68
2022/11/18 13:20:37;;;;;;;11.52;8.23;;;6.60;99.90;;;;;;5113146;27;20059;-67
2022/11/18 13:25:49;;;;;;;9.65;7.50;;;6.60;99.90;;;;;;5110513;27;20130;-68